sensor_id;sensor_type;location;lat;lon;timestamp;P1;durP1;ratioP1;P2;durP2;ratioP2
2672;SDS011;1346;51.558;6.996;2022-09-23T00:01:03;16.98;;;6.93;;
2672;SDS011;1346;51.558;6.996;2022-09-23T00:03:33;11.25;;;6.80;;
2672;SDS011;1346;51.558;6.996;2022-09-23T00:06:02;11.45;;;6.90;;
2672;SDS011;1346;51.558;6.996;2022-09-23T00:08:32;12.45;;;6.75;;
2672;SDS011;1346;51.558;6.996;2022-09-23T00:11:02;8.95;;;6.05;;
2672;SDS011;1346;51.558;6.996;2022-09-23T00:13:31;9.05;;;6.85;;
2672;SDS011;1346;51.558;6.996;2022-09-23T00:16:01;14.15;;;6.60;;
2672;SDS011;1346;51.558;6.996;2022-09-23T00:18:29;9.10;;;6.32;;
2672;SDS011;1346;51.558;6.996;2022-09-23T00:20:56;9.68;;;6.97;;
2672;SDS011;1346;51.558;6.996;2022-09-23T00:23:27;9.40;;;6.53;;
2672;SDS011;1346;51.558;6.996;2022-09-23T00:25:55;13.80;;;6.15;;
2672;SDS011;1346;51.558;6.996;2022-09-23T00:28:22;9.50;;;7.20;;
2672;SDS011;1346;51.558;6.996;2022-09-23T00:30:51;10.48;;;6.93;;
2672;SDS011;1346;51.558;6.996;2022-09-23T00:33:18;10.73;;;6.85;;
2672;SDS011;1346;51.558;6.996;2022-09-23T00:35:44;8.20;;;5.95;;
2672;SDS011;1346;51.558;6.996;2022-09-23T00:38:12;11.40;;;7.38;;
2672;SDS011;1346;51.558;6.996;2022-09-23T00:40:41;8.68;;;6.45;;
2672;SDS011;1346;51.558;6.996;2022-09-23T00:43:10;7.68;;;6.40;;
2672;SDS011;1346;51.558;6.996;2022-09-23T00:45:38;8.85;;;6.95;;
2672;SDS011;1346;51.558;6.996;2022-09-23T00:48:08;10.80;;;7.15;;
2672;SDS011;1346;51.558;6.996;2022-09-23T00:50:41;9.50;;;6.05;;
2672;SDS011;1346;51.558;6.996;2022-09-23T00:53:14;8.98;;;6.45;;
2672;SDS011;1346;51.558;6.996;2022-09-23T00:55:47;8.13;;;6.25;;
2672;SDS011;1346;51.558;6.996;2022-09-23T00:58:19;12.00;;;7.68;;
2672;SDS011;1346;51.558;6.996;2022-09-23T01:00:50;10.45;;;6.30;;
2672;SDS011;1346;51.558;6.996;2022-09-23T01:03:19;7.70;;;6.60;;
2672;SDS011;1346;51.558;6.996;2022-09-23T01:05:47;8.85;;;6.57;;
2672;SDS011;1346;51.558;6.996;2022-09-23T01:08:14;8.30;;;6.13;;
2672;SDS011;1346;51.558;6.996;2022-09-23T01:10:42;7.72;;;6.38;;
2672;SDS011;1346;51.558;6.996;2022-09-23T01:13:23;8.95;;;6.03;;
2672;SDS011;1346;51.558;6.996;2022-09-23T01:15:58;8.85;;;6.70;;
2672;SDS011;1346;51.558;6.996;2022-09-23T01:18:36;9.00;;;6.78;;
2672;SDS011;1346;51.558;6.996;2022-09-23T01:21:13;10.02;;;7.00;;
2672;SDS011;1346;51.558;6.996;2022-09-23T01:24:14;11.65;;;6.78;;
2672;SDS011;1346;51.558;6.996;2022-09-23T01:27:13;8.80;;;6.05;;
2672;SDS011;1346;51.558;6.996;2022-09-23T01:30:13;12.07;;;7.20;;
2672;SDS011;1346;51.558;6.996;2022-09-23T01:33:03;8.07;;;6.30;;
2672;SDS011;1346;51.558;6.996;2022-09-23T01:35:59;9.27;;;6.10;;
2672;SDS011;1346;51.558;6.996;2022-09-23T01:38:37;7.43;;;6.35;;
2672;SDS011;1346;51.558;6.996;2022-09-23T01:41:12;10.50;;;5.80;;
2672;SDS011;1346;51.558;6.996;2022-09-23T01:43:56;8.65;;;6.47;;
2672;SDS011;1346;51.558;6.996;2022-09-23T01:46:32;9.82;;;6.90;;
2672;SDS011;1346;51.558;6.996;2022-09-23T01:49:07;8.90;;;5.95;;
2672;SDS011;1346;51.558;6.996;2022-09-23T01:51:40;10.02;;;6.40;;
2672;SDS011;1346;51.558;6.996;2022-09-23T01:54:12;8.20;;;6.07;;
2672;SDS011;1346;51.558;6.996;2022-09-23T01:56:46;9.32;;;6.22;;
2672;SDS011;1346;51.558;6.996;2022-09-23T01:59:18;7.40;;;5.90;;
2672;SDS011;1346;51.558;6.996;2022-09-23T02:01:53;11.43;;;6.55;;
2672;SDS011;1346;51.558;6.996;2022-09-23T02:04:26;8.05;;;6.38;;
2672;SDS011;1346;51.558;6.996;2022-09-23T02:06:58;9.43;;;5.97;;
2672;SDS011;1346;51.558;6.996;2022-09-23T02:09:30;14.23;;;6.47;;
2672;SDS011;1346;51.558;6.996;2022-09-23T02:12:02;9.30;;;6.43;;
2672;SDS011;1346;51.558;6.996;2022-09-23T02:14:37;7.00;;;6.25;;
2672;SDS011;1346;51.558;6.996;2022-09-23T02:17:11;9.02;;;6.55;;
2672;SDS011;1346;51.558;6.996;2022-09-23T02:19:44;7.93;;;5.70;;
2672;SDS011;1346;51.558;6.996;2022-09-23T02:22:18;9.57;;;5.85;;
2672;SDS011;1346;51.558;6.996;2022-09-23T02:24:51;7.40;;;5.80;;
2672;SDS011;1346;51.558;6.996;2022-09-23T02:27:22;7.78;;;6.35;;
2672;SDS011;1346;51.558;6.996;2022-09-23T02:29:56;7.00;;;5.63;;
2672;SDS011;1346;51.558;6.996;2022-09-23T02:32:35;10.30;;;5.70;;
2672;SDS011;1346;51.558;6.996;2022-09-23T02:35:14;8.48;;;6.10;;
2672;SDS011;1346;51.558;6.996;2022-09-23T02:37:47;7.47;;;5.85;;
2672;SDS011;1346;51.558;6.996;2022-09-23T02:40:23;7.57;;;5.47;;
2672;SDS011;1346;51.558;6.996;2022-09-23T02:43:00;9.85;;;5.60;;
2672;SDS011;1346;51.558;6.996;2022-09-23T02:45:33;8.23;;;6.00;;
2672;SDS011;1346;51.558;6.996;2022-09-23T02:48:04;10.15;;;6.25;;
2672;SDS011;1346;51.558;6.996;2022-09-23T02:50:37;8.35;;;6.07;;
2672;SDS011;1346;51.558;6.996;2022-09-23T02:53:04;6.50;;;5.70;;
2672;SDS011;1346;51.558;6.996;2022-09-23T02:55:32;7.90;;;5.82;;
2672;SDS011;1346;51.558;6.996;2022-09-23T02:57:59;8.70;;;5.57;;
2672;SDS011;1346;51.558;6.996;2022-09-23T03:00:33;8.15;;;5.95;;
2672;SDS011;1346;51.558;6.996;2022-09-23T03:03:12;8.43;;;5.50;;
2672;SDS011;1346;51.558;6.996;2022-09-23T03:05:52;7.43;;;5.57;;
2672;SDS011;1346;51.558;6.996;2022-09-23T03:08:27;6.78;;;5.43;;
2672;SDS011;1346;51.558;6.996;2022-09-23T03:11:03;7.85;;;5.70;;
2672;SDS011;1346;51.558;6.996;2022-09-23T03:13:34;11.85;;;5.88;;
2672;SDS011;1346;51.558;6.996;2022-09-23T03:16:19;8.15;;;6.30;;
2672;SDS011;1346;51.558;6.996;2022-09-23T03:18:58;7.28;;;5.20;;
2672;SDS011;1346;51.558;6.996;2022-09-23T03:21:37;7.10;;;4.68;;
2672;SDS011;1346;51.558;6.996;2022-09-23T03:24:10;9.50;;;5.88;;
2672;SDS011;1346;51.558;6.996;2022-09-23T03:26:39;8.35;;;6.03;;
2672;SDS011;1346;51.558;6.996;2022-09-23T03:29:11;8.73;;;5.93;;
2672;SDS011;1346;51.558;6.996;2022-09-23T03:31:41;8.32;;;5.70;;
2672;SDS011;1346;51.558;6.996;2022-09-23T03:34:12;7.43;;;5.13;;
2672;SDS011;1346;51.558;6.996;2022-09-23T03:36:46;6.72;;;5.43;;
2672;SDS011;1346;51.558;6.996;2022-09-23T03:39:29;8.23;;;6.60;;
2672;SDS011;1346;51.558;6.996;2022-09-23T03:42:02;6.05;;;5.32;;
2672;SDS011;1346;51.558;6.996;2022-09-23T03:44:41;5.78;;;5.18;;
2672;SDS011;1346;51.558;6.996;2022-09-23T03:47:09;9.25;;;5.57;;
2672;SDS011;1346;51.558;6.996;2022-09-23T03:49:39;6.55;;;5.13;;
2672;SDS011;1346;51.558;6.996;2022-09-23T03:52:09;8.25;;;5.32;;
2672;SDS011;1346;51.558;6.996;2022-09-23T03:54:36;8.98;;;6.13;;
2672;SDS011;1346;51.558;6.996;2022-09-23T03:57:03;8.25;;;5.88;;
2672;SDS011;1346;51.558;6.996;2022-09-23T03:59:30;5.80;;;4.90;;
2672;SDS011;1346;51.558;6.996;2022-09-23T04:01:57;8.80;;;5.78;;
2672;SDS011;1346;51.558;6.996;2022-09-23T04:04:25;7.70;;;6.35;;
2672;SDS011;1346;51.558;6.996;2022-09-23T04:06:54;11.77;;;6.22;;
2672;SDS011;1346;51.558;6.996;2022-09-23T04:09:21;8.52;;;6.82;;
2672;SDS011;1346;51.558;6.996;2022-09-23T04:11:48;10.63;;;6.75;;
2672;SDS011;1346;51.558;6.996;2022-09-23T04:14:16;9.90;;;6.95;;
2672;SDS011;1346;51.558;6.996;2022-09-23T04:16:46;8.30;;;6.90;;
2672;SDS011;1346;51.558;6.996;2022-09-23T04:19:14;10.15;;;6.88;;
2672;SDS011;1346;51.558;6.996;2022-09-23T04:21:42;8.82;;;6.22;;
2672;SDS011;1346;51.558;6.996;2022-09-23T04:24:11;7.72;;;5.78;;
2672;SDS011;1346;51.558;6.996;2022-09-23T04:26:39;11.13;;;6.15;;
2672;SDS011;1346;51.558;6.996;2022-09-23T04:29:06;7.53;;;5.70;;
2672;SDS011;1346;51.558;6.996;2022-09-23T04:31:36;7.82;;;5.97;;
2672;SDS011;1346;51.558;6.996;2022-09-23T04:34:03;6.68;;;5.50;;
2672;SDS011;1346;51.558;6.996;2022-09-23T04:36:30;7.32;;;5.93;;
2672;SDS011;1346;51.558;6.996;2022-09-23T04:38:58;11.90;;;5.50;;
2672;SDS011;1346;51.558;6.996;2022-09-23T04:41:26;7.15;;;6.10;;
2672;SDS011;1346;51.558;6.996;2022-09-23T04:43:53;9.15;;;6.13;;
2672;SDS011;1346;51.558;6.996;2022-09-23T04:46:21;8.57;;;5.78;;
2672;SDS011;1346;51.558;6.996;2022-09-23T04:48:49;6.57;;;5.68;;
2672;SDS011;1346;51.558;6.996;2022-09-23T04:51:17;9.50;;;6.43;;
2672;SDS011;1346;51.558;6.996;2022-09-23T04:53:46;6.60;;;5.63;;
2672;SDS011;1346;51.558;6.996;2022-09-23T04:56:16;8.75;;;6.00;;
2672;SDS011;1346;51.558;6.996;2022-09-23T04:58:46;5.60;;;4.88;;
2672;SDS011;1346;51.558;6.996;2022-09-23T05:01:14;12.10;;;6.22;;
2672;SDS011;1346;51.558;6.996;2022-09-23T05:03:44;7.63;;;6.20;;
2672;SDS011;1346;51.558;6.996;2022-09-23T05:06:12;6.47;;;5.63;;
2672;SDS011;1346;51.558;6.996;2022-09-23T05:08:41;8.38;;;5.15;;
2672;SDS011;1346;51.558;6.996;2022-09-23T05:11:12;7.07;;;5.60;;
2672;SDS011;1346;51.558;6.996;2022-09-23T05:13:40;9.25;;;6.50;;
2672;SDS011;1346;51.558;6.996;2022-09-23T05:16:09;6.30;;;5.55;;
2672;SDS011;1346;51.558;6.996;2022-09-23T05:18:37;5.93;;;5.18;;
2672;SDS011;1346;51.558;6.996;2022-09-23T05:21:06;8.57;;;6.15;;
2672;SDS011;1346;51.558;6.996;2022-09-23T05:23:34;7.85;;;6.20;;
2672;SDS011;1346;51.558;6.996;2022-09-23T05:26:02;8.52;;;6.05;;
2672;SDS011;1346;51.558;6.996;2022-09-23T05:28:31;8.05;;;5.90;;
2672;SDS011;1346;51.558;6.996;2022-09-23T05:31:02;8.20;;;6.15;;
2672;SDS011;1346;51.558;6.996;2022-09-23T05:33:33;8.02;;;6.90;;
2672;SDS011;1346;51.558;6.996;2022-09-23T05:36:02;7.55;;;6.60;;
2672;SDS011;1346;51.558;6.996;2022-09-23T05:38:30;9.27;;;6.70;;
2672;SDS011;1346;51.558;6.996;2022-09-23T05:40:58;14.63;;;6.43;;
2672;SDS011;1346;51.558;6.996;2022-09-23T05:43:26;12.35;;;7.30;;
2672;SDS011;1346;51.558;6.996;2022-09-23T05:46:00;14.20;;;7.85;;
2672;SDS011;1346;51.558;6.996;2022-09-23T05:48:28;12.40;;;7.68;;
2672;SDS011;1346;51.558;6.996;2022-09-23T05:50:57;11.80;;;6.55;;
2672;SDS011;1346;51.558;6.996;2022-09-23T05:53:25;10.20;;;7.15;;
2672;SDS011;1346;51.558;6.996;2022-09-23T05:55:53;9.25;;;7.13;;
2672;SDS011;1346;51.558;6.996;2022-09-23T05:58:20;9.80;;;7.28;;
2672;SDS011;1346;51.558;6.996;2022-09-23T06:00:48;12.73;;;6.53;;
2672;SDS011;1346;51.558;6.996;2022-09-23T06:03:17;12.77;;;6.50;;
2672;SDS011;1346;51.558;6.996;2022-09-23T06:05:46;8.77;;;6.35;;
2672;SDS011;1346;51.558;6.996;2022-09-23T06:08:14;10.98;;;7.32;;
2672;SDS011;1346;51.558;6.996;2022-09-23T06:10:42;11.38;;;6.97;;
2672;SDS011;1346;51.558;6.996;2022-09-23T06:13:12;11.43;;;6.38;;
2672;SDS011;1346;51.558;6.996;2022-09-23T06:15:40;8.93;;;7.05;;
2672;SDS011;1346;51.558;6.996;2022-09-23T06:18:07;11.25;;;7.70;;
2672;SDS011;1346;51.558;6.996;2022-09-23T06:20:35;10.75;;;7.10;;
2672;SDS011;1346;51.558;6.996;2022-09-23T06:23:02;9.75;;;7.00;;
2672;SDS011;1346;51.558;6.996;2022-09-23T06:25:32;8.35;;;6.97;;
2672;SDS011;1346;51.558;6.996;2022-09-23T06:27:59;10.82;;;7.32;;
2672;SDS011;1346;51.558;6.996;2022-09-23T06:30:27;12.55;;;7.88;;
2672;SDS011;1346;51.558;6.996;2022-09-23T06:32:55;10.60;;;7.35;;
2672;SDS011;1346;51.558;6.996;2022-09-23T06:35:23;10.40;;;8.23;;
2672;SDS011;1346;51.558;6.996;2022-09-23T06:37:52;11.88;;;7.70;;
2672;SDS011;1346;51.558;6.996;2022-09-23T06:40:19;11.82;;;7.85;;
2672;SDS011;1346;51.558;6.996;2022-09-23T06:42:55;11.88;;;9.00;;
2672;SDS011;1346;51.558;6.996;2022-09-23T06:45:23;13.45;;;9.10;;
2672;SDS011;1346;51.558;6.996;2022-09-23T06:47:52;11.23;;;8.30;;
2672;SDS011;1346;51.558;6.996;2022-09-23T06:50:21;10.35;;;7.88;;
2672;SDS011;1346;51.558;6.996;2022-09-23T06:52:49;9.95;;;7.57;;
2672;SDS011;1346;51.558;6.996;2022-09-23T06:55:20;11.15;;;8.15;;
2672;SDS011;1346;51.558;6.996;2022-09-23T06:57:50;13.68;;;7.70;;
2672;SDS011;1346;51.558;6.996;2022-09-23T07:00:17;9.05;;;7.03;;
2672;SDS011;1346;51.558;6.996;2022-09-23T07:02:45;8.00;;;6.50;;
2672;SDS011;1346;51.558;6.996;2022-09-23T07:05:12;7.80;;;6.03;;
2672;SDS011;1346;51.558;6.996;2022-09-23T07:07:40;11.38;;;6.45;;
2672;SDS011;1346;51.558;6.996;2022-09-23T07:10:08;8.48;;;6.70;;
2672;SDS011;1346;51.558;6.996;2022-09-23T07:12:36;11.10;;;6.07;;
2672;SDS011;1346;51.558;6.996;2022-09-23T07:15:06;8.60;;;5.67;;
2672;SDS011;1346;51.558;6.996;2022-09-23T07:17:34;8.70;;;6.07;;
2672;SDS011;1346;51.558;6.996;2022-09-23T07:20:01;8.67;;;5.67;;
2672;SDS011;1346;51.558;6.996;2022-09-23T07:22:28;6.00;;;4.80;;
2672;SDS011;1346;51.558;6.996;2022-09-23T07:24:56;8.87;;;5.00;;
2672;SDS011;1346;51.558;6.996;2022-09-23T07:27:23;7.60;;;5.27;;
2672;SDS011;1346;51.558;6.996;2022-09-23T07:29:51;6.10;;;4.57;;
2672;SDS011;1346;51.558;6.996;2022-09-23T07:32:21;5.90;;;4.30;;
2672;SDS011;1346;51.558;6.996;2022-09-23T07:34:48;15.60;;;5.50;;
2672;SDS011;1346;51.558;6.996;2022-09-23T07:37:15;8.90;;;4.40;;
2672;SDS011;1346;51.558;6.996;2022-09-23T07:39:43;6.80;;;4.60;;
2672;SDS011;1346;51.558;6.996;2022-09-23T07:42:10;7.20;;;4.20;;
2672;SDS011;1346;51.558;6.996;2022-09-23T07:44:38;7.00;;;4.73;;
2672;SDS011;1346;51.558;6.996;2022-09-23T07:47:06;9.03;;;4.60;;
2672;SDS011;1346;51.558;6.996;2022-09-23T07:49:34;8.03;;;5.60;;
2672;SDS011;1346;51.558;6.996;2022-09-23T07:52:02;7.07;;;4.57;;
2672;SDS011;1346;51.558;6.996;2022-09-23T07:54:29;8.57;;;5.30;;
2672;SDS011;1346;51.558;6.996;2022-09-23T07:56:57;9.20;;;5.30;;
2672;SDS011;1346;51.558;6.996;2022-09-23T07:59:24;8.00;;;4.60;;
2672;SDS011;1346;51.558;6.996;2022-09-23T08:01:51;9.70;;;4.77;;
2672;SDS011;1346;51.558;6.996;2022-09-23T08:04:21;16.17;;;6.00;;
2672;SDS011;1346;51.558;6.996;2022-09-23T08:06:54;8.23;;;4.80;;
2672;SDS011;1346;51.558;6.996;2022-09-23T08:09:23;8.83;;;4.73;;
2672;SDS011;1346;51.558;6.996;2022-09-23T08:11:53;11.73;;;4.30;;
2672;SDS011;1346;51.558;6.996;2022-09-23T08:14:20;8.67;;;3.73;;
2672;SDS011;1346;51.558;6.996;2022-09-23T08:16:47;12.80;;;3.93;;
2672;SDS011;1346;51.558;6.996;2022-09-23T08:19:15;7.00;;;3.60;;
2672;SDS011;1346;51.558;6.996;2022-09-23T08:21:43;7.37;;;3.73;;
2672;SDS011;1346;51.558;6.996;2022-09-23T08:24:13;5.50;;;3.67;;
2672;SDS011;1346;51.558;6.996;2022-09-23T08:26:42;5.30;;;2.77;;
2672;SDS011;1346;51.558;6.996;2022-09-23T08:29:11;6.93;;;3.93;;
2672;SDS011;1346;51.558;6.996;2022-09-23T08:31:39;10.67;;;4.50;;
2672;SDS011;1346;51.558;6.996;2022-09-23T08:34:06;9.90;;;3.30;;
2672;SDS011;1346;51.558;6.996;2022-09-23T08:36:34;4.40;;;2.93;;
2672;SDS011;1346;51.558;6.996;2022-09-23T08:39:01;7.50;;;4.17;;
2672;SDS011;1346;51.558;6.996;2022-09-23T08:41:33;9.03;;;4.00;;
2672;SDS011;1346;51.558;6.996;2022-09-23T08:44:09;7.03;;;3.07;;
2672;SDS011;1346;51.558;6.996;2022-09-23T08:46:42;9.80;;;3.77;;
2672;SDS011;1346;51.558;6.996;2022-09-23T08:49:15;4.47;;;2.60;;
2672;SDS011;1346;51.558;6.996;2022-09-23T08:51:50;3.57;;;2.17;;
2672;SDS011;1346;51.558;6.996;2022-09-23T08:54:19;4.07;;;2.43;;
2672;SDS011;1346;51.558;6.996;2022-09-23T08:56:49;5.30;;;2.30;;
2672;SDS011;1346;51.558;6.996;2022-09-23T08:59:17;3.53;;;2.57;;
2672;SDS011;1346;51.558;6.996;2022-09-23T09:01:54;5.00;;;2.27;;
2672;SDS011;1346;51.558;6.996;2022-09-23T09:04:24;2.30;;;1.97;;
2672;SDS011;1346;51.558;6.996;2022-09-23T09:07:00;3.40;;;2.37;;
2672;SDS011;1346;51.558;6.996;2022-09-23T09:09:38;5.83;;;3.10;;
2672;SDS011;1346;51.558;6.996;2022-09-23T09:12:13;3.13;;;2.30;;
2672;SDS011;1346;51.558;6.996;2022-09-23T09:14:47;5.77;;;3.10;;
2672;SDS011;1346;51.558;6.996;2022-09-23T09:17:24;5.73;;;2.63;;
2672;SDS011;1346;51.558;6.996;2022-09-23T09:20:04;5.47;;;2.80;;
2672;SDS011;1346;51.558;6.996;2022-09-23T09:22:49;7.87;;;2.50;;
2672;SDS011;1346;51.558;6.996;2022-09-23T09:25:32;3.60;;;2.57;;
2672;SDS011;1346;51.558;6.996;2022-09-23T09:28:12;3.10;;;2.60;;
2672;SDS011;1346;51.558;6.996;2022-09-23T09:30:44;3.43;;;2.50;;
2672;SDS011;1346;51.558;6.996;2022-09-23T09:33:18;3.50;;;2.20;;
2672;SDS011;1346;51.558;6.996;2022-09-23T09:35:58;4.07;;;2.57;;
2672;SDS011;1346;51.558;6.996;2022-09-23T09:38:37;4.10;;;2.10;;
2672;SDS011;1346;51.558;6.996;2022-09-23T09:41:09;5.60;;;2.00;;
2672;SDS011;1346;51.558;6.996;2022-09-23T09:43:43;5.20;;;2.90;;
2672;SDS011;1346;51.558;6.996;2022-09-23T09:46:21;3.40;;;2.30;;
2672;SDS011;1346;51.558;6.996;2022-09-23T09:49:18;6.57;;;2.70;;
2672;SDS011;1346;51.558;6.996;2022-09-23T09:52:09;3.77;;;2.17;;
2672;SDS011;1346;51.558;6.996;2022-09-23T09:54:40;5.30;;;2.80;;
2672;SDS011;1346;51.558;6.996;2022-09-23T09:57:10;3.83;;;2.57;;
2672;SDS011;1346;51.558;6.996;2022-09-23T09:59:52;5.97;;;2.67;;
2672;SDS011;1346;51.558;6.996;2022-09-23T10:02:24;3.40;;;2.30;;
2672;SDS011;1346;51.558;6.996;2022-09-23T10:04:59;5.03;;;2.00;;
2672;SDS011;1346;51.558;6.996;2022-09-23T10:07:28;3.57;;;1.97;;
2672;SDS011;1346;51.558;6.996;2022-09-23T10:09:57;4.47;;;2.20;;
2672;SDS011;1346;51.558;6.996;2022-09-23T10:12:44;3.13;;;2.10;;
2672;SDS011;1346;51.558;6.996;2022-09-23T10:15:26;3.50;;;1.93;;
2672;SDS011;1346;51.558;6.996;2022-09-23T10:17:57;7.43;;;2.13;;
2672;SDS011;1346;51.558;6.996;2022-09-23T10:20:29;9.93;;;2.30;;
2672;SDS011;1346;51.558;6.996;2022-09-23T10:23:06;2.70;;;2.07;;
2672;SDS011;1346;51.558;6.996;2022-09-23T10:25:34;10.20;;;2.33;;
2672;SDS011;1346;51.558;6.996;2022-09-23T10:31:08;4.97;;;2.37;;
2672;SDS011;1346;51.558;6.996;2022-09-23T10:33:39;5.57;;;1.93;;
2672;SDS011;1346;51.558;6.996;2022-09-23T10:36:13;4.93;;;2.10;;
2672;SDS011;1346;51.558;6.996;2022-09-23T10:38:42;6.63;;;3.10;;
2672;SDS011;1346;51.558;6.996;2022-09-23T10:41:14;4.17;;;2.73;;
2672;SDS011;1346;51.558;6.996;2022-09-23T10:44:26;3.80;;;2.50;;
2672;SDS011;1346;51.558;6.996;2022-09-23T10:47:24;6.60;;;2.70;;
2672;SDS011;1346;51.558;6.996;2022-09-23T10:50:08;8.70;;;4.20;;
2672;SDS011;1346;51.558;6.996;2022-09-23T10:52:50;9.20;;;4.20;;
2672;SDS011;1346;51.558;6.996;2022-09-23T10:55:32;8.27;;;5.00;;
2672;SDS011;1346;51.558;6.996;2022-09-23T10:58:19;17.00;;;8.10;;
2672;SDS011;1346;51.558;6.996;2022-09-23T11:01:22;7.13;;;3.83;;
2672;SDS011;1346;51.558;6.996;2022-09-23T11:04:09;5.83;;;3.83;;
2672;SDS011;1346;51.558;6.996;2022-09-23T11:06:59;8.10;;;2.97;;
2672;SDS011;1346;51.558;6.996;2022-09-23T11:09:51;4.60;;;2.43;;
2672;SDS011;1346;51.558;6.996;2022-09-23T11:12:46;4.47;;;2.20;;
2672;SDS011;1346;51.558;6.996;2022-09-23T11:15:25;3.50;;;2.33;;
2672;SDS011;1346;51.558;6.996;2022-09-23T11:18:15;3.63;;;2.27;;
2672;SDS011;1346;51.558;6.996;2022-09-23T11:21:10;5.90;;;1.80;;
2672;SDS011;1346;51.558;6.996;2022-09-23T11:24:00;3.13;;;2.00;;
2672;SDS011;1346;51.558;6.996;2022-09-23T11:26:53;3.20;;;2.00;;
2672;SDS011;1346;51.558;6.996;2022-09-23T11:32:42;3.60;;;1.90;;
2672;SDS011;1346;51.558;6.996;2022-09-23T11:35:41;7.90;;;2.40;;
2672;SDS011;1346;51.558;6.996;2022-09-23T11:38:15;5.43;;;2.43;;
2672;SDS011;1346;51.558;6.996;2022-09-23T11:40:49;3.43;;;2.10;;
2672;SDS011;1346;51.558;6.996;2022-09-23T11:43:21;4.83;;;1.73;;
2672;SDS011;1346;51.558;6.996;2022-09-23T11:45:52;4.70;;;2.03;;
2672;SDS011;1346;51.558;6.996;2022-09-23T11:48:26;2.90;;;1.60;;
2672;SDS011;1346;51.558;6.996;2022-09-23T11:51:02;4.83;;;2.23;;
2672;SDS011;1346;51.558;6.996;2022-09-23T11:53:37;6.30;;;1.83;;
2672;SDS011;1346;51.558;6.996;2022-09-23T11:56:12;5.23;;;2.00;;
2672;SDS011;1346;51.558;6.996;2022-09-23T11:58:45;4.60;;;2.03;;
2672;SDS011;1346;51.558;6.996;2022-09-23T12:01:25;4.20;;;1.97;;
2672;SDS011;1346;51.558;6.996;2022-09-23T12:03:58;4.90;;;1.83;;
2672;SDS011;1346;51.558;6.996;2022-09-23T12:06:33;3.27;;;2.10;;
2672;SDS011;1346;51.558;6.996;2022-09-23T12:09:09;3.00;;;2.10;;
2672;SDS011;1346;51.558;6.996;2022-09-23T12:11:47;4.00;;;2.30;;
2672;SDS011;1346;51.558;6.996;2022-09-23T12:14:23;4.57;;;2.07;;
2672;SDS011;1346;51.558;6.996;2022-09-23T12:17:05;3.57;;;2.13;;
2672;SDS011;1346;51.558;6.996;2022-09-23T12:19:55;6.67;;;2.30;;
2672;SDS011;1346;51.558;6.996;2022-09-23T12:23:01;4.87;;;2.20;;
2672;SDS011;1346;51.558;6.996;2022-09-23T12:25:45;6.33;;;2.20;;
2672;SDS011;1346;51.558;6.996;2022-09-23T12:28:19;4.13;;;2.17;;
2672;SDS011;1346;51.558;6.996;2022-09-23T12:30:52;6.80;;;2.40;;
2672;SDS011;1346;51.558;6.996;2022-09-23T12:33:24;6.10;;;2.10;;
2672;SDS011;1346;51.558;6.996;2022-09-23T12:35:54;5.13;;;2.53;;
2672;SDS011;1346;51.558;6.996;2022-09-23T12:38:31;5.50;;;2.17;;
2672;SDS011;1346;51.558;6.996;2022-09-23T12:41:16;4.53;;;1.90;;
2672;SDS011;1346;51.558;6.996;2022-09-23T12:43:49;7.27;;;2.20;;
2672;SDS011;1346;51.558;6.996;2022-09-23T12:46:19;3.63;;;2.37;;
2672;SDS011;1346;51.558;6.996;2022-09-23T12:49:00;3.27;;;2.17;;
2672;SDS011;1346;51.558;6.996;2022-09-23T12:51:29;5.87;;;2.57;;
2672;SDS011;1346;51.558;6.996;2022-09-23T12:57:08;4.30;;;2.50;;
2672;SDS011;1346;51.558;6.996;2022-09-23T12:59:52;5.63;;;2.70;;
2672;SDS011;1346;51.558;6.996;2022-09-23T13:02:27;7.13;;;2.30;;
2672;SDS011;1346;51.558;6.996;2022-09-23T13:05:17;8.50;;;3.00;;
2672;SDS011;1346;51.558;6.996;2022-09-23T13:08:05;8.50;;;3.50;;
2672;SDS011;1346;51.558;6.996;2022-09-23T13:10:38;4.30;;;2.70;;
2672;SDS011;1346;51.558;6.996;2022-09-23T13:13:16;7.53;;;1.93;;
2672;SDS011;1346;51.558;6.996;2022-09-23T13:15:48;3.50;;;2.23;;
2672;SDS011;1346;51.558;6.996;2022-09-23T13:18:29;4.67;;;2.20;;
2672;SDS011;1346;51.558;6.996;2022-09-23T13:24:35;6.97;;;2.60;;
2672;SDS011;1346;51.558;6.996;2022-09-23T13:27:12;4.00;;;2.40;;
2672;SDS011;1346;51.558;6.996;2022-09-23T13:29:47;7.07;;;2.80;;
2672;SDS011;1346;51.558;6.996;2022-09-23T13:32:21;6.73;;;3.10;;
2672;SDS011;1346;51.558;6.996;2022-09-23T13:34:56;4.70;;;2.60;;
2672;SDS011;1346;51.558;6.996;2022-09-23T13:37:28;6.53;;;2.77;;
2672;SDS011;1346;51.558;6.996;2022-09-23T13:40:08;12.90;;;3.90;;
2672;SDS011;1346;51.558;6.996;2022-09-23T13:42:43;7.97;;;3.03;;
2672;SDS011;1346;51.558;6.996;2022-09-23T13:45:18;4.50;;;3.17;;
2672;SDS011;1346;51.558;6.996;2022-09-23T13:47:48;7.87;;;3.37;;
2672;SDS011;1346;51.558;6.996;2022-09-23T13:50:19;7.13;;;2.90;;
2672;SDS011;1346;51.558;6.996;2022-09-23T13:52:52;7.37;;;3.30;;
2672;SDS011;1346;51.558;6.996;2022-09-23T13:55:25;6.60;;;2.80;;
2672;SDS011;1346;51.558;6.996;2022-09-23T13:57:59;7.37;;;3.00;;
2672;SDS011;1346;51.558;6.996;2022-09-23T14:00:36;7.93;;;3.60;;
2672;SDS011;1346;51.558;6.996;2022-09-23T14:03:22;8.30;;;4.00;;
2672;SDS011;1346;51.558;6.996;2022-09-23T14:05:54;6.73;;;3.97;;
2672;SDS011;1346;51.558;6.996;2022-09-23T14:08:22;13.00;;;4.60;;
2672;SDS011;1346;51.558;6.996;2022-09-23T14:10:50;6.17;;;3.40;;
2672;SDS011;1346;51.558;6.996;2022-09-23T14:13:20;9.07;;;4.10;;
2672;SDS011;1346;51.558;6.996;2022-09-23T14:15:51;7.93;;;3.30;;
2672;SDS011;1346;51.558;6.996;2022-09-23T14:18:26;7.10;;;3.10;;
2672;SDS011;1346;51.558;6.996;2022-09-23T14:20:58;3.90;;;2.57;;
2672;SDS011;1346;51.558;6.996;2022-09-23T14:23:26;10.40;;;3.10;;
2672;SDS011;1346;51.558;6.996;2022-09-23T14:25:54;9.13;;;2.80;;
2672;SDS011;1346;51.558;6.996;2022-09-23T14:28:21;5.30;;;3.10;;
2672;SDS011;1346;51.558;6.996;2022-09-23T14:30:53;9.20;;;2.87;;
2672;SDS011;1346;51.558;6.996;2022-09-23T14:33:24;7.07;;;3.10;;
2672;SDS011;1346;51.558;6.996;2022-09-23T14:35:56;3.87;;;2.60;;
2672;SDS011;1346;51.558;6.996;2022-09-23T14:38:32;4.93;;;2.80;;
2672;SDS011;1346;51.558;6.996;2022-09-23T14:41:18;3.43;;;2.83;;
2672;SDS011;1346;51.558;6.996;2022-09-23T14:43:55;8.77;;;3.23;;
2672;SDS011;1346;51.558;6.996;2022-09-23T14:46:26;8.00;;;3.60;;
2672;SDS011;1346;51.558;6.996;2022-09-23T14:48:58;8.53;;;3.37;;
2672;SDS011;1346;51.558;6.996;2022-09-23T14:51:34;10.50;;;4.43;;
2672;SDS011;1346;51.558;6.996;2022-09-23T14:57:23;5.73;;;3.33;;
2672;SDS011;1346;51.558;6.996;2022-09-23T14:59:54;6.60;;;3.63;;
2672;SDS011;1346;51.558;6.996;2022-09-23T15:02:29;4.97;;;2.97;;
2672;SDS011;1346;51.558;6.996;2022-09-23T15:05:15;12.60;;;3.67;;
2672;SDS011;1346;51.558;6.996;2022-09-23T15:07:46;5.10;;;3.17;;
2672;SDS011;1346;51.558;6.996;2022-09-23T15:10:18;6.10;;;2.70;;
2672;SDS011;1346;51.558;6.996;2022-09-23T15:12:52;7.10;;;3.47;;
2672;SDS011;1346;51.558;6.996;2022-09-23T15:15:22;7.10;;;3.30;;
2672;SDS011;1346;51.558;6.996;2022-09-23T15:17:54;3.83;;;3.00;;
2672;SDS011;1346;51.558;6.996;2022-09-23T15:20:27;4.80;;;2.60;;
2672;SDS011;1346;51.558;6.996;2022-09-23T15:22:55;11.30;;;3.20;;
2672;SDS011;1346;51.558;6.996;2022-09-23T15:25:24;5.50;;;3.07;;
2672;SDS011;1346;51.558;6.996;2022-09-23T15:27:59;6.23;;;2.20;;
2672;SDS011;1346;51.558;6.996;2022-09-23T15:30:30;4.87;;;2.60;;
2672;SDS011;1346;51.558;6.996;2022-09-23T15:32:58;6.80;;;3.87;;
2672;SDS011;1346;51.558;6.996;2022-09-23T15:35:25;5.23;;;3.20;;
2672;SDS011;1346;51.558;6.996;2022-09-23T15:37:56;5.10;;;2.70;;
2672;SDS011;1346;51.558;6.996;2022-09-23T15:40:26;8.23;;;2.90;;
2672;SDS011;1346;51.558;6.996;2022-09-23T15:42:55;5.87;;;3.20;;
2672;SDS011;1346;51.558;6.996;2022-09-23T15:45:26;12.30;;;2.97;;
2672;SDS011;1346;51.558;6.996;2022-09-23T15:47:57;5.80;;;3.20;;
2672;SDS011;1346;51.558;6.996;2022-09-23T15:50:31;12.10;;;3.13;;
2672;SDS011;1346;51.558;6.996;2022-09-23T15:53:00;6.03;;;3.50;;
2672;SDS011;1346;51.558;6.996;2022-09-23T15:55:27;5.00;;;2.83;;
2672;SDS011;1346;51.558;6.996;2022-09-23T15:57:54;7.33;;;3.13;;
2672;SDS011;1346;51.558;6.996;2022-09-23T16:00:21;7.00;;;2.73;;
2672;SDS011;1346;51.558;6.996;2022-09-23T16:02:48;6.43;;;2.90;;
2672;SDS011;1346;51.558;6.996;2022-09-23T16:05:19;6.40;;;2.70;;